createdAt,value
2019-01-30T00:02:00.364Z,9.80
2019-01-30T00:06:52.081Z,6.63
2019-01-30T00:11:43.129Z,5.90
2019-01-30T00:16:34.850Z,8.93
2019-01-30T00:21:25.863Z,6.13
2019-01-30T00:26:18.335Z,5.67
2019-01-30T00:31:09.364Z,6.30
2019-01-30T00:36:01.087Z,6.40
2019-01-30T00:40:52.014Z,8.05
2019-01-30T00:45:43.739Z,6.90
2019-01-30T00:50:34.755Z,7.07
2019-01-30T00:55:25.683Z,6.13
2019-01-30T01:00:19.491Z,7.27
2019-01-30T01:05:11.243Z,10.40
2019-01-30T01:10:02.209Z,10.27
2019-01-30T01:14:53.089Z,7.10
2019-01-30T01:19:43.969Z,7.10
2019-01-30T01:24:34.853Z,7.57
2019-01-30T01:29:25.758Z,8.63
2019-01-30T01:34:16.645Z,8.02
2019-01-30T01:39:08.273Z,7.80
2019-01-30T01:43:59.889Z,8.70
2019-01-30T01:48:50.773Z,6.47
2019-01-30T01:53:41.729Z,7.30
2019-01-30T01:58:33.404Z,9.80
2019-01-30T02:03:24.288Z,10.07
2019-01-30T02:08:15.936Z,8.07
2019-01-30T02:13:07.578Z,8.10
2019-01-30T02:17:59.204Z,7.50
2019-01-30T02:22:50.828Z,7.17
2019-01-30T02:27:42.454Z,8.00
2019-01-30T02:32:33.337Z,7.53
2019-01-30T02:37:24.214Z,7.50
2019-01-30T02:42:15.114Z,11.23
2019-01-30T02:47:06.100Z,8.47
2019-01-30T02:51:56.981Z,7.43
2019-01-30T02:56:47.928Z,7.20
2019-01-30T03:01:38.818Z,9.53
2019-01-30T03:06:29.786Z,10.97
2019-01-30T03:11:20.693Z,8.47
2019-01-30T03:16:11.569Z,8.30
2019-01-30T03:21:02.445Z,9.50
2019-01-30T03:25:53.328Z,9.67
2019-01-30T03:30:44.269Z,12.47
2019-01-30T03:35:35.133Z,9.83
2019-01-30T03:40:26.753Z,8.90
2019-01-30T03:45:18.458Z,9.10
2019-01-30T03:50:09.349Z,9.23
2019-01-30T03:55:00.287Z,10.97
2019-01-30T03:59:51.873Z,9.27
2019-01-30T04:04:43.553Z,10.67
2019-01-30T04:09:34.471Z,8.67
2019-01-30T04:14:25.352Z,8.73
2019-01-30T04:19:16.976Z,13.97
2019-01-30T04:24:08.600Z,11.30
2019-01-30T04:28:59.489Z,11.17
2019-01-30T04:33:50.376Z,13.27
2019-01-30T04:38:41.261Z,11.50
2019-01-30T04:43:32.145Z,20.33
2019-01-30T04:48:23.025Z,9.80
2019-01-30T04:53:13.969Z,11.60
2019-01-30T04:58:04.914Z,10.37
2019-01-30T05:02:55.800Z,10.80
2019-01-30T05:07:46.691Z,11.33
2019-01-30T05:12:37.565Z,9.10
2019-01-30T05:17:28.466Z,11.23
2019-01-30T05:22:19.340Z,8.77
2019-01-30T05:27:10.962Z,9.83
2019-01-30T05:32:02.584Z,11.10
2019-01-30T05:36:53.572Z,13.43
2019-01-30T05:41:44.461Z,8.20
2019-01-30T05:46:35.349Z,14.27
2019-01-30T05:51:26.229Z,13.83
2019-01-30T05:56:20.101Z,9.87
2019-01-30T06:01:08.816Z,11.20
2019-01-30T06:05:59.700Z,7.70
2019-01-30T06:10:50.584Z,11.10
2019-01-30T06:15:41.468Z,10.60
2019-01-30T06:20:32.340Z,12.40
2019-01-30T06:25:23.367Z,12.50
2019-01-30T06:30:16.166Z,13.03
2019-01-30T06:35:07.045Z,10.33
2019-01-30T06:39:57.929Z,11.53
2019-01-30T06:44:49.621Z,9.83
2019-01-30T06:49:40.504Z,7.77
2019-01-30T06:54:31.400Z,13.80
2019-01-30T06:59:23.087Z,8.17
2019-01-30T07:04:13.966Z,10.37
2019-01-30T07:09:04.913Z,14.10
2019-01-30T07:13:55.847Z,9.30
2019-01-30T07:18:46.753Z,13.62
2019-01-30T07:23:37.678Z,13.60
2019-01-30T07:28:28.553Z,10.10
2019-01-30T07:33:19.505Z,15.00
2019-01-30T07:38:11.395Z,13.37
2019-01-30T07:43:03.104Z,9.10
2019-01-30T07:47:55.062Z,17.03
2019-01-30T07:52:45.956Z,14.33
2019-01-30T07:57:36.849Z,13.07
2019-01-30T08:02:27.793Z,13.40
2019-01-30T08:07:18.817Z,11.30
2019-01-30T08:12:09.769Z,18.70
2019-01-30T08:17:00.806Z,13.40
2019-01-30T08:21:52.455Z,11.83
2019-01-30T08:26:43.699Z,20.10
2019-01-30T08:31:35.084Z,13.83
2019-01-30T08:36:25.971Z,10.97
2019-01-30T08:41:16.879Z,10.20
2019-01-30T08:46:07.761Z,9.50
2019-01-30T08:50:59.388Z,20.07
2019-01-30T08:55:51.029Z,12.97
2019-01-30T09:00:42.695Z,14.20
2019-01-30T09:05:33.580Z,12.50
2019-01-30T09:10:25.228Z,12.17
2019-01-30T09:15:16.126Z,15.38
2019-01-30T09:20:08.617Z,12.50
2019-01-30T09:24:59.515Z,17.10
2019-01-30T09:29:50.401Z,19.60
2019-01-30T09:34:41.318Z,15.07
2019-01-30T09:39:32.209Z,18.87
2019-01-30T09:44:23.107Z,11.73
2019-01-30T09:49:14.002Z,22.93
2019-01-30T09:54:05.625Z,15.43
2019-01-30T09:58:57.330Z,18.60
2019-01-30T10:03:48.237Z,16.70
2019-01-30T10:08:39.127Z,16.47
2019-01-30T10:13:30.034Z,21.93
2019-01-30T10:18:20.921Z,15.48
2019-01-30T10:23:11.810Z,14.40
2019-01-30T10:28:02.707Z,18.33
2019-01-30T10:32:53.606Z,15.03
2019-01-30T10:37:44.514Z,16.30
2019-01-30T10:42:36.136Z,16.03
2019-01-30T10:47:27.021Z,15.83
2019-01-30T10:52:17.903Z,21.63
2019-01-30T10:57:08.859Z,14.70
2019-01-30T11:01:59.783Z,13.73
2019-01-30T11:06:50.685Z,16.37
2019-01-30T11:11:41.571Z,16.05
2019-01-30T11:16:32.463Z,16.40
2019-01-30T11:21:23.344Z,16.33
2019-01-30T11:26:14.223Z,14.93
2019-01-30T11:31:05.127Z,17.17
2019-01-30T11:35:56.750Z,13.97
2019-01-30T11:40:47.649Z,15.10
2019-01-30T11:45:39.314Z,13.30
2019-01-30T11:50:30.937Z,13.87
2019-01-30T11:55:21.830Z,12.70
2019-01-30T12:00:20.729Z,15.30
2019-01-30T12:05:11.605Z,16.52
2019-01-30T12:10:03.269Z,19.00
2019-01-30T12:14:54.162Z,12.77
2019-01-30T12:19:45.059Z,13.37
2019-01-30T12:24:36.688Z,9.70
2019-01-30T12:29:28.309Z,12.70
2019-01-30T12:34:28.022Z,11.60
2019-01-30T12:39:10.152Z,11.53
2019-01-30T12:44:01.028Z,13.50
2019-01-30T12:48:51.904Z,9.77
2019-01-30T12:53:43.529Z,11.30
2019-01-30T12:58:35.176Z,20.50
2019-01-30T13:03:26.814Z,14.87
2019-01-30T13:08:18.471Z,18.37
2019-01-30T13:13:09.448Z,12.97
2019-01-30T13:18:00.296Z,12.17
2019-01-30T13:22:51.929Z,11.90
2019-01-30T13:27:43.557Z,13.50
2019-01-30T13:32:35.177Z,18.87
2019-01-30T13:37:26.184Z,23.07
2019-01-30T13:42:17.079Z,19.57
2019-01-30T13:47:07.961Z,16.50
2019-01-30T13:51:59.597Z,15.90
2019-01-30T13:56:51.244Z,16.47
2019-01-30T14:01:42.156Z,19.40
2019-01-30T14:06:33.067Z,25.23
2019-01-30T14:11:24.701Z,20.13
2019-01-30T14:16:16.319Z,20.10
2019-01-30T14:21:07.198Z,22.97
2019-01-30T14:25:58.092Z,21.10
2019-01-30T14:30:49.142Z,21.57
2019-01-30T14:35:40.031Z,22.53
2019-01-30T14:40:30.920Z,23.43
2019-01-30T14:45:22.581Z,19.67
2019-01-30T14:50:14.240Z,25.03
2019-01-30T14:55:05.120Z,30.37
2019-01-30T14:59:56.753Z,30.63
2019-01-30T15:04:48.382Z,34.10
2019-01-30T15:09:40.068Z,29.70
2019-01-30T15:14:31.010Z,33.57
2019-01-30T15:19:21.995Z,30.60
2019-01-30T15:24:12.888Z,32.60
2019-01-30T15:29:04.553Z,27.70
2019-01-30T15:33:55.429Z,34.25
2019-01-30T15:38:47.068Z,31.65
2019-01-30T15:43:38.710Z,27.33
2019-01-30T15:48:30.341Z,24.43
2019-01-30T15:53:21.974Z,25.73
2019-01-30T15:58:13.609Z,30.07
2019-01-30T16:03:05.304Z,27.13
2019-01-30T16:07:56.207Z,26.53
2019-01-30T16:12:47.107Z,25.73
2019-01-30T16:17:37.989Z,27.53
2019-01-30T16:22:28.872Z,24.90
2019-01-30T16:27:19.761Z,24.17
2019-01-30T16:32:10.655Z,20.70
2019-01-30T16:37:02.276Z,18.90
2019-01-30T16:41:53.157Z,21.77
2019-01-30T16:46:44.038Z,17.80
2019-01-30T16:51:34.925Z,22.10
2019-01-30T16:56:25.933Z,23.00
2019-01-30T17:01:16.738Z,20.10
2019-01-30T17:06:07.921Z,19.70
2019-01-30T17:10:58.525Z,20.70
2019-01-30T17:15:50.148Z,20.10
2019-01-30T17:20:41.768Z,19.93
2019-01-30T17:25:32.670Z,21.47
2019-01-30T17:30:30.391Z,20.53
2019-01-30T17:35:22.014Z,16.90
2019-01-30T17:40:16.075Z,17.73
2019-01-30T17:45:07.025Z,15.77
2019-01-30T17:49:58.961Z,17.20
2019-01-30T17:54:49.577Z,20.58
2019-01-30T17:59:41.209Z,19.75
2019-01-30T18:04:32.193Z,16.00
2019-01-30T18:09:23.084Z,19.37
2019-01-30T18:14:14.072Z,15.90
2019-01-30T18:19:05.617Z,21.30
2019-01-30T18:23:57.258Z,20.23
2019-01-30T18:28:48.169Z,19.10
2019-01-30T18:33:39.065Z,17.33
2019-01-30T18:38:29.966Z,22.73
2019-01-30T18:43:20.876Z,22.10
2019-01-30T18:48:11.751Z,22.00
2019-01-30T18:53:03.377Z,21.63
2019-01-30T18:57:55.004Z,26.67
2019-01-30T19:02:47.717Z,27.07
2019-01-30T19:07:38.589Z,25.10
2019-01-30T19:12:30.217Z,24.37
2019-01-30T19:17:21.863Z,28.90
2019-01-30T19:22:13.561Z,25.13
2019-01-30T19:27:04.450Z,25.27
2019-01-30T19:31:55.377Z,25.07
2019-01-30T19:36:46.278Z,29.65
2019-01-30T19:41:37.191Z,32.10
2019-01-30T19:46:28.076Z,37.10
2019-01-30T19:51:19.108Z,32.77
2019-01-30T19:56:09.982Z,29.87
2019-01-30T20:01:00.878Z,28.17
2019-01-30T20:05:51.814Z,34.33
2019-01-30T20:10:42.912Z,30.20
2019-01-30T20:15:33.869Z,35.27
2019-01-30T20:20:24.756Z,41.17
2019-01-30T20:25:16.605Z,34.17
2019-01-30T20:30:08.517Z,38.88
2019-01-30T20:35:00.204Z,37.40
2019-01-30T20:39:51.119Z,37.80
2019-01-30T20:44:41.988Z,35.63
2019-01-30T20:49:33.617Z,36.37
2019-01-30T20:54:25.236Z,36.83
2019-01-30T20:59:16.217Z,37.47
2019-01-30T21:04:07.148Z,43.53
2019-01-30T21:08:58.037Z,48.67
2019-01-30T21:13:48.991Z,36.67
2019-01-30T21:18:39.889Z,41.00
2019-01-30T21:23:30.783Z,40.93
2019-01-30T21:28:21.672Z,43.27
2019-01-30T21:33:13.379Z,45.47
2019-01-30T21:38:04.290Z,40.10
2019-01-30T21:42:55.197Z,44.00
2019-01-30T21:47:46.072Z,46.03
2019-01-30T21:52:37.693Z,37.23
2019-01-30T21:57:28.573Z,45.17
2019-01-30T22:02:19.471Z,51.03
2019-01-30T22:07:10.405Z,47.83
2019-01-30T22:12:01.300Z,45.30
2019-01-30T22:16:52.176Z,43.93
2019-01-30T22:21:43.045Z,50.07
2019-01-30T22:26:33.984Z,51.47
2019-01-30T22:31:24.874Z,59.37
2019-01-30T22:36:15.866Z,48.57
2019-01-30T22:41:07.502Z,52.27
2019-01-30T22:45:59.217Z,55.67
2019-01-30T22:50:51.608Z,51.03
2019-01-30T22:55:43.237Z,48.70
2019-01-30T23:00:35.868Z,53.10
2019-01-30T23:05:36.254Z,53.40
2019-01-30T23:10:45.072Z,48.53
2019-01-30T23:15:37.586Z,53.80
2019-01-30T23:20:28.465Z,60.60
2019-01-30T23:25:25.397Z,49.80
2019-01-30T23:35:39.187Z,60.38
2019-01-30T23:40:59.524Z,59.70
2019-01-30T23:45:50.493Z,56.90
2019-01-30T23:50:47.042Z,51.87
2019-01-30T23:55:52.598Z,54.90
